Latest Weather Observations for Devonport Airport

IDT60801

Issued at 12:32 am EST Sunday 24 September 2017 (issued every 30 minutes, with the page automatically refreshed every 10 minutes)

About weather observations | Map of weather stations | Latest weather observations for TAS | Other Formats
Station Details ID: 091126 Name: DEVONPORT AIRPORT Lat: -41.17 Lon: 146.43 Height: 8.0 m
Data from the previous 72 hours. | See also: Recent months at Devonport Airport
Date/Time
EST
Temp
°C
App
Temp
°C
Dew
Point
°C
Rel
Hum
%
Delta-T
°C
Wind Press
QNH
hPa
Press
MSL
hPa
Rain since
9am
mm
Dir  Spd
km/h
Gust
km/h
Spd
kts
Gust
kts
24/12:30am 12.1 4.6 10.7 91 0.7 WNW 41 54 22 29 991.6 991.6 5.2
24/12:00am 12.2 4.3 10.8 91 0.7 WNW 43 59 23 32 991.5 991.5 5.2
 
Date/Time
EST
Temp
°C
App
Temp
°C
Dew
Point
°C
Rel
Hum
%
Delta-T
°C
Wind Press
QNH
hPa
Press
MSL
hPa
Rain since
9am
mm
Dir  Spd
km/h
Gust
km/h
Spd
kts
Gust
kts
23/11:39pm 12.4 4.4 11.0 91 0.7 NW 44 63 24 34 991.4 991.4 5.2
23/11:30pm 12.3 4.3 11.0 92 0.7 NW 44 59 24 32 991.4 991.4 5.2
23/11:00pm 12.1 5.8 11.2 94 0.5 NW 35 48 19 26 991.7 991.7 5.2
23/10:49pm 12.5 5.5 11.2 92 0.7 NW 39 50 21 27 991.6 991.6 5.2
23/10:30pm 12.2 5.2 11.3 94 0.5 WNW 39 50 21 27 991.8 991.8 5.2
23/10:25pm 12.3 4.4 11.4 94 0.5 NW 44 63 24 34 992.0 992.0 5.2
23/10:17pm 12.3 5.4 11.5 95 0.4 NW 39 59 21 32 991.9 991.9 5.2
23/10:12pm 12.2 6.4 11.6 96 0.3 NW 33 46 18 25 991.9 991.9 5.0
23/10:06pm 12.1 5.9 11.5 96 0.3 NW 35 46 19 25 992.1 992.1 5.0
23/10:00pm 12.3 6.7 11.4 94 0.5 NW 32 44 17 24 992.1 992.1 4.6
23/09:30pm 11.9 7.3 11.1 95 0.4 WNW 26 33 14 18 992.2 992.2 4.6
23/09:00pm 11.9 6.6 11.1 95 0.4 NW 30 39 16 21 992.2 992.2 4.6
23/08:30pm 11.8 9.0 11.3 97 0.3 NW 17 28 9 15 991.9 991.9 4.6
23/08:11pm 11.8 8.6 11.3 97 0.3 NNW 19 24 10 13 991.7 991.7 4.6
23/08:00pm 11.9 7.8 11.4 97 0.3 NNW 24 30 13 16 992.0 992.0 4.4
23/07:49pm 12.1 8.4 11.5 96 0.3 NW 22 28 12 15 992.3 992.3 3.8
23/07:30pm 12.4 9.9 11.1 92 0.7 NW 15 19 8 10 992.0 992.0 2.8
23/07:00pm 12.2 7.0 11.6 96 0.3 WNW 30 41 16 22 991.6 991.6 2.0
23/06:49pm 12.4 5.9 11.6 95 0.4 WNW 37 56 20 30 992.2 992.2 1.6
23/06:44pm 12.4 4.6 11.8 96 0.3 WNW 44 57 24 31 992.4 992.4 1.4
23/06:35pm 12.7 4.6 11.9 95 0.4 WNW 46 57 25 31 992.3 992.3 1.2
23/06:30pm 12.8 5.7 12.2 96 0.3 WNW 41 56 22 30 992.1 992.1 1.2
23/06:15pm 13.1 6.5 12.5 96 0.3 WNW 39 57 21 31 991.3 991.3 1.0
23/06:09pm 13.3 5.9 12.5 95 0.4 WNW 43 57 23 31 991.3 991.3 0.8
23/06:00pm 13.3 6.2 12.2 93 0.6 WNW 41 50 22 27 991.4 991.4 0.4
23/05:48pm 15.2 11.6 12.9 86 1.3 W 24 46 13 25 990.7 990.7 0.4
23/05:30pm 16.0 15.3 13.3 84 1.5 SSW 9 13 5 7 988.7 988.7 0.4
23/05:00pm 16.1 14.6 13.0 82 1.7 SSE 13 19 7 10 988.2 988.2 0.4
23/04:30pm 17.3 16.4 13.6 79 2.1 S 11 15 6 8 988.8 988.8 0.4
23/04:00pm 16.9 15.1 13.4 80 2.0 S 15 20 8 11 989.3 989.3 0.4
23/03:30pm 16.5 14.3 13.4 82 1.7 SSW 17 20 9 11 990.2 990.2 0.4
23/03:00pm 16.9 16.0 13.8 82 1.8 SSE 11 15 6 8 990.3 990.3 0.4
23/02:30pm 15.9 13.2 13.4 85 1.4 SE 20 28 11 15 990.1 990.1 0.4
23/02:00pm 14.7 12.4 13.1 90 0.9 SSE 17 22 9 12 991.1 991.1 0.4
23/01:30pm 14.4 12.0 12.6 89 1.0 SSE 17 22 9 12 991.7 991.7 0.4
23/01:00pm 14.0 11.6 12.6 91 0.8 SSE 17 28 9 15 992.9 992.9 0.4
23/12:37pm 13.6 10.5 12.3 92 0.7 SSE 20 35 11 19 993.2 993.2 0.4
23/12:30pm 13.7 11.2 12.3 91 0.8 S 17 22 9 12 995.3 995.3 0.4
23/12:15pm 13.3 10.7 12.0 92 0.7 S 17 24 9 13 994.3 994.3 0.4
23/12:00pm 13.8 12.4 12.2 90 0.9 S 11 17 6 9 996.3 996.3 0.4
23/11:30am 12.6 9.4 11.8 95 0.4 S 20 28 11 15 995.3 995.3 0.4
23/11:00am 12.6 9.9 11.8 95 0.4 SSE 17 22 9 12 996.4 996.4 0.2
23/10:30am 12.2 9.4 11.4 95 0.4 SSE 17 24 9 13 997.8 997.8 0.2
23/10:00am 11.9 9.0 11.0 94 0.5 SSE 17 20 9 11 998.2 998.2 0.0
23/09:30am 11.8 8.5 11.0 95 0.4 SE 19 24 10 13 998.4 998.4 0.0
23/09:00am 11.5 8.1 10.7 95 0.4 SE 19 20 10 11 999.0 999.0 1.6
23/08:30am 10.7 7.5 9.8 94 0.5 SSW 17 22 9 12 1000.5 1000.5 1.4
23/08:00am 11.0 7.6 9.3 89 0.9 SSW 17 26 9 14 1000.6 1000.6 0.2
23/07:30am 10.7 7.6 8.8 88 0.9 SSE 15 20 8 11 999.5 999.5 0.2
23/07:00am 10.9 7.5 9.0 88 0.9 SSE 17 22 9 12 998.8 998.8 0.2
23/06:30am 10.8 6.7 8.6 86 1.1 SE 20 28 11 15 999.0 999.0 0.2
23/06:00am 10.2 6.2 8.3 88 0.9 S 19 24 10 13 1000.5 1000.5 0.2
23/05:30am 10.0 6.9 8.8 92 0.6 SSE 15 19 8 10 1000.4 1000.4 0.2
23/05:00am 9.9 6.4 8.7 92 0.6 SSE 17 22 9 12 1000.3 1000.3 0.2
23/04:30am 10.5 7.8 8.8 89 0.8 SE 13 17 7 9 1001.3 1001.3 0.2
23/04:25am 10.2 7.1 8.8 91 0.7 ESE 15 19 8 10 1001.1 1001.1 0.2
23/04:10am 9.8 6.6 8.4 91 0.7 S 15 24 8 13 1002.2 1002.2 0.2
23/04:00am 10.2 6.3 8.5 89 0.8 S 19 30 10 16 1001.9 1001.9 0.2
23/03:42am 9.8 6.2 8.2 90 0.8 SSE 17 24 9 13 1001.3 1001.3 0.2
23/03:30am 9.9 5.7 8.2 89 0.8 S 20 43 11 23 1003.3 1003.3 0.2
23/03:27am 9.8 4.8 8.2 90 0.8 S 24 43 13 23 1002.8 1002.8 0.2
23/03:19am 9.7 5.8 8.5 92 0.6 ESE 19 30 10 16 1000.8 1000.8 0.2
23/03:00am 9.9 6.3 8.5 91 0.7 SSE 17 22 9 12 1003.1 1003.1 0.2
23/02:30am 10.1 6.1 8.4 89 0.8 SE 19 24 10 13 1003.2 1003.2 0.2
23/02:20am 9.8 6.6 8.6 92 0.6 SSE 15 20 8 11 1003.7 1003.7 0.2
23/02:00am 9.6 5.7 8.7 94 0.4 SSE 19 20 10 11 1003.8 1003.8 0.2
23/01:30am 9.4 5.9 8.6 95 0.4 SSE 17 20 9 11 1004.8 1004.8 0.2
23/01:00am 9.8 5.9 8.7 93 0.5 S 19 26 10 14 1005.7 1005.7 0.2
23/12:37am 10.0 6.2 9.2 95 0.4 ESE 19 32 10 17 1004.6 1004.6 0.2
23/12:30am 10.1 7.5 9.2 94 0.4 SSW 13 24 7 13 1006.7 1006.7 0.0
23/12:21am 10.1 7.5 9.2 94 0.4 SSW 13 24 7 13 1008.1 1008.1 0.0
23/12:00am 9.7 7.3 8.8 94 0.4 SE 11 15 6 8 1006.1 1006.1 0.0
 
Date/Time
EST
Temp
°C
App
Temp
°C
Dew
Point
°C
Rel
Hum
%
Delta-T
°C
Wind Press
QNH
hPa
Press
MSL
hPa
Rain since
9am
mm
Dir  Spd
km/h
Gust
km/h
Spd
kts
Gust
kts
22/11:30pm 9.9 6.1 9.1 95 0.4 SE 19 20 10 11 1006.2 1006.2 0.0
22/11:00pm 10.1 8.0 9.6 97 0.3 SSE 11 15 6 8 1006.6 1006.6 0.0
22/10:30pm 9.8 7.6 9.2 96 0.3 SE 11 15 6 8 1006.5 1006.5 0.0
22/10:00pm 9.6 7.7 9.0 96 0.3 E 9 13 5 7 1007.0 1007.0 0.0
22/09:30pm 10.6 10.6 9.8 95 0.4 CALM 0 0 0 0 1007.9 1007.9 0.0
22/09:00pm 10.9 9.6 10.0 94 0.5 ESE 7 9 4 5 1007.5 1007.5 0.0
22/08:30pm 11.3 11.0 10.0 92 0.7 NNE 2 9 1 5 1008.9 1008.9 0.0
22/08:00pm 11.5 9.2 10.4 93 0.6 SW 13 20 7 11 1009.2 1009.3 0.0
22/07:30pm 11.2 10.9 10.1 93 0.6 NW 2 9 1 5 1007.2 1007.2 0.0
22/07:00pm 11.5 8.8 10.4 93 0.6 ESE 15 20 8 11 1006.0 1006.0 0.0
22/06:58pm 11.5 9.2 10.4 93 0.6 ESE 13 20 7 11 1006.0 1006.0 0.0
22/06:30pm 11.8 11.1 10.0 89 0.9 WNW 4 9 2 5 1008.0 1008.0 0.0
22/06:00pm 11.9 11.5 9.8 87 1.1 WNW 2 7 1 4 1007.4 1007.4 0.0
22/05:30pm 12.0 9.9 9.9 87 1.1 WNW 11 15 6 8 1008.0 1008.0 0.0
22/05:00pm 12.3 10.6 10.0 86 1.2 NNE 9 11 5 6 1007.3 1007.3 0.0
22/04:30pm 12.5 10.1 10.0 85 1.3 N 13 17 7 9 1007.6 1007.6 0.0
22/04:00pm 12.6 9.7 9.8 83 1.4 NNW 15 17 8 9 1008.2 1008.2 0.0
22/03:30pm 12.6 9.8 10.0 84 1.3 NNW 15 19 8 10 1008.0 1008.0 0.0
22/03:00pm 12.7 10.1 9.5 81 1.6 NNW 13 17 7 9 1008.0 1008.0 0.0
22/02:30pm 13.4 10.5 9.6 78 1.9 NNW 15 19 8 10 1008.2 1008.2 0.0
22/02:00pm 13.6 10.1 10.2 80 1.8 NNW 19 22 10 12 1008.3 1008.3 0.0
22/01:30pm 13.4 9.8 10.0 80 1.8 NNW 19 22 10 12 1008.4 1008.4 0.0
22/01:00pm 13.9 11.0 10.9 82 1.6 NNW 17 20 9 11 1008.7 1008.7 0.0
22/12:30pm 13.3 9.7 10.7 84 1.4 NNW 20 24 11 13 1009.1 1009.2 0.0
22/12:00pm 13.2 9.8 10.6 84 1.4 NNW 19 22 10 12 1009.3 1009.4 0.0
22/11:30am 13.0 9.4 10.0 82 1.5 NW 19 22 10 12 1009.6 1009.7 0.0
22/11:00am 13.1 9.0 10.1 82 1.5 NW 22 26 12 14 1009.9 1010.0 0.0
22/10:30am 13.0 9.3 10.0 82 1.5 NW 20 22 11 12 1010.0 1010.1 0.0
22/10:20am 13.2 10.2 10.6 84 1.4 NW 17 22 9 12 1009.8 1009.9 0.0
22/10:00am 12.5 9.8 10.4 87 1.1 WNW 15 20 8 11 1009.9 1010.0 0.0
22/09:57am 12.3 9.6 10.2 87 1.1 WNW 15 20 8 11 1009.9 1010.0 0.0
22/09:30am 12.1 8.9 9.8 86 1.2 WNW 17 20 9 11 1009.9 1010.0 0.0
22/09:00am 11.9 8.7 9.8 87 1.1 WNW 17 24 9 13 1010.0 1010.1 0.0
22/08:30am 11.8 9.0 10.0 89 0.9 W 15 20 8 11 1009.9 1010.0 0.0
22/08:00am 10.0 8.5 8.3 89 0.8 W 6 9 3 5 1009.8 1009.9 0.0
22/07:30am 8.7 8.1 7.2 90 0.7 CALM 0 0 0 0 1009.3 1009.4 0.0
22/07:00am 6.5 4.4 5.8 95 0.3 SSW 6 7 3 4 1009.1 1009.2 0.0
22/06:30am 5.9 3.6 5.0 94 0.4 S 6 7 3 4 1008.9 1008.9 0.0
22/06:00am 7.2 5.0 6.1 93 0.5 WSW 7 9 4 5 1008.9 1008.9 0.0
22/05:30am 7.1 4.9 6.0 93 0.5 SW 7 9 4 5 1009.0 1009.0 0.0
22/05:00am 7.2 4.3 6.3 94 0.4 WSW 11 13 6 7 1008.9 1008.9 0.0
22/04:30am 7.7 5.3 6.8 94 0.4 SW 9 11 5 6 1008.7 1008.7 0.0
22/04:00am 7.3 4.4 6.4 94 0.4 WSW 11 13 6 7 1008.5 1008.5 0.0
22/03:30am 7.3 4.3 6.1 92 0.5 W 11 15 6 8 1008.5 1008.5 0.0
22/03:00am 8.5 4.5 6.5 87 0.9 W 17 24 9 13 1008.4 1008.4 0.0
22/02:30am 9.9 5.5 7.5 85 1.1 WNW 20 26 11 14 1008.5 1008.5 0.0
22/02:00am 9.8 5.4 7.4 85 1.1 WNW 20 22 11 12 1008.7 1008.7 0.0
22/01:30am 9.7 5.3 7.5 86 1.0 WNW 20 24 11 13 1008.9 1008.9 0.0
22/01:00am 7.8 5.5 5.6 86 1.0 SW 7 11 4 6 1008.9 1008.9 0.0
22/12:30am 8.6 5.8 5.2 79 1.5 SW 9 13 5 7 1008.7 1008.7 0.0
22/12:00am 8.4 6.0 5.2 80 1.4 SW 7 9 4 5 1008.5 1008.5 0.0
 
Date/Time
EST
Temp
°C
App
Temp
°C
Dew
Point
°C
Rel
Hum
%
Delta-T
°C
Wind Press
QNH
hPa
Press
MSL
hPa
Rain since
9am
mm
Dir  Spd
km/h
Gust
km/h
Spd
kts
Gust
kts
21/11:30pm 7.8 4.6 4.9 82 1.3 WSW 11 17 6 9 1008.5 1008.5 0.0
21/11:00pm 8.3 4.7 4.9 79 1.5 W 13 15 7 8 1008.7 1008.7 0.0
21/10:30pm 8.9 4.7 5.5 79 1.5 WSW 17 19 9 10 1008.7 1008.7 0.0
21/10:00pm 8.7 4.5 5.6 81 1.4 W 17 20 9 11 1008.5 1008.5 0.0
21/09:30pm 9.6 6.0 6.7 82 1.4 W 15 17 8 9 1008.5 1008.5 0.0
21/09:00pm 10.6 6.3 7.7 82 1.4 W 20 24 11 13 1008.0 1008.0 0.0
21/08:30pm 11.6 6.8 9.0 84 1.3 W 24 30 13 16 1007.8 1007.8 0.0
21/08:00pm 12.1 7.1 9.7 85 1.2 W 26 32 14 17 1007.3 1007.3 0.0
21/07:30pm 12.2 7.2 10.9 92 0.7 WNW 28 35 15 19 1006.8 1006.8 0.0
21/07:16pm 12.0 7.9 11.4 96 0.3 WNW 24 32 13 17 1006.7 1006.7 0.0
21/07:00pm 12.0 8.3 11.4 96 0.3 WNW 22 30 12 16 1006.6 1006.6 0.0
21/06:30pm 12.4 9.7 11.6 95 0.4 NW 17 22 9 12 1006.2 1006.2 0.0
21/06:04pm 12.5 9.7 11.2 92 0.7 WNW 17 22 9 12 1006.0 1006.0 0.0
21/06:00pm 12.4 9.5 11.1 92 0.7 WNW 17 24 9 13 1006.0 1006.0 0.0
21/05:30pm 13.0 10.0 10.7 86 1.2 WNW 17 20 9 11 1005.6 1005.6 0.0
21/05:00pm 13.6 11.4 10.8 83 1.5 NW 13 19 7 10 1005.5 1005.5 0.0
21/04:30pm 13.5 11.5 10.1 80 1.8 NNW 11 17 6 9 1005.5 1005.5 0.0
21/04:00pm 14.3 11.6 10.5 78 2.0 N 15 19 8 10 1005.4 1005.4 0.0
21/03:30pm 14.8 11.4 10.6 76 2.2 N 19 22 10 12 1005.5 1005.5 0.0
21/03:00pm 13.9 10.3 10.5 80 1.8 NNE 20 28 11 15 1005.6 1005.6 0.0
21/02:30pm 14.5 10.3 11.1 80 1.8 NNE 24 30 13 16 1005.8 1005.8 0.0
21/02:00pm 15.1 10.3 11.5 79 1.9 NE 28 32 15 17 1006.2 1006.2 0.0
21/01:30pm 14.6 9.1 10.6 77 2.1 NE 30 35 16 19 1006.6 1006.6 0.0
21/01:00pm 14.3 9.2 10.7 79 1.9 NE 28 35 15 19 1006.9 1006.9 0.0
21/12:30pm 14.3 8.9 10.9 80 1.8 NE 30 35 16 19 1007.5 1007.5 0.0
21/12:00pm 13.7 8.8 11.2 85 1.3 NE 28 33 15 18 1008.0 1008.0 0.0
21/11:30am 13.5 8.9 10.9 84 1.4 NE 26 32 14 17 1008.0 1008.0 0.0
21/11:00am 13.5 8.3 11.6 88 1.0 ENE 30 35 16 19 1008.2 1008.2 0.0
21/10:30am 12.4 8.6 11.3 93 0.6 ENE 22 28 12 15 1009.4 1009.5 0.0
21/10:00am 12.6 9.2 11.2 91 0.7 NE 20 24 11 13 1010.6 1010.7 0.0
21/09:30am 12.9 9.1 11.3 90 0.8 ENE 22 28 12 15 1010.6 1010.7 0.0
21/09:00am 12.4 8.2 11.0 91 0.7 ENE 24 28 13 15 1010.6 1010.7 0.0
21/08:30am 12.3 9.0 11.0 92 0.7 NE 19 24 10 13 1011.0 1011.1 0.0
21/08:00am 12.2 9.4 11.3 94 0.5 ENE 17 22 9 12 1011.1 1011.2 0.0
21/07:30am 11.1 10.0 10.5 96 0.3 ENE 7 9 4 5 1011.5 1011.6 0.0
21/07:24am 11.0 9.9 10.5 97 0.3 ENE 7 13 4 7 1011.4 1011.5 0.0
21/07:00am 10.2 8.8 9.7 97 0.3 SE 7 11 4 6 1011.2 1011.3 0.0
21/06:30am 9.6 7.0 9.5 99 0.0 SSE 13 15 7 8 1011.6 1011.7 0.0
21/06:00am 9.3 7.4 9.2 99 0.0 S 9 13 5 7 1011.8 1011.9 0.0
21/05:30am 9.3 7.4 9.2 99 0.0 S 9 13 5 7 1011.7 1011.8 0.0
21/05:00am 8.7 6.3 8.6 99 0.0 SE 11 13 6 7 1011.7 1011.8 0.0
21/04:30am 8.2 5.6 7.9 98 0.1 SSE 11 13 6 7 1011.9 1012.0 0.0
21/04:00am 8.5 6.0 8.2 98 0.1 SSE 11 13 6 7 1012.1 1012.2 0.0
21/03:30am 9.1 6.7 8.8 98 0.1 SE 11 13 6 7 1012.6 1012.7 0.0
21/03:00am 9.1 7.1 8.8 98 0.1 SSE 9 11 5 6 1012.9 1013.0 0.0
21/02:30am 9.0 7.0 8.6 97 0.2 WSW 9 11 5 6 1013.3 1013.4 0.0
21/02:00am 9.8 8.3 9.3 97 0.2 SW 7 9 4 5 1013.0 1013.1 0.0
21/01:30am 10.0 8.2 9.5 97 0.2 E 9 13 5 7 1012.6 1012.7 0.0
21/01:00am 10.5 8.8 9.7 95 0.4 N 9 13 5 7 1013.4 1013.5 0.0

Other Formats:

Comma delimited format used in spreadsheet applications
http://www.bom.gov.au/fwo/IDT60801/IDT60801.95960.axf

JavaScript Object Notation format (JSON) in row-major order
http://www.bom.gov.au/fwo/IDT60801/IDT60801.95960.json